createdAt,value
2023-01-05T04:41:19.380Z,14.60
2023-01-05T04:56:26.864Z,14.90
2023-01-05T05:11:31.869Z,14.90
2023-01-05T05:26:36.495Z,14.80
2023-01-05T05:41:41.484Z,14.80
2023-01-05T05:56:46.065Z,14.80
2023-01-05T06:11:50.482Z,14.70
2023-01-05T06:26:55.347Z,14.70
2023-01-05T06:41:59.998Z,14.90
2023-01-05T06:57:04.552Z,15.10
2023-01-05T07:12:09.624Z,15.00
2023-01-05T07:27:14.187Z,14.90
2023-01-05T07:42:18.655Z,15.20
2023-01-05T07:57:25.172Z,15.30
2023-01-05T08:12:30.878Z,15.20
2023-01-05T08:27:35.603Z,15.40
2023-01-05T08:42:40.624Z,15.70
2023-01-05T08:57:46.226Z,15.70
2023-01-05T09:12:50.734Z,16.00
2023-01-05T09:27:55.572Z,15.70
2023-01-05T09:43:00.229Z,15.60
2023-01-05T09:58:11.548Z,15.60
2023-01-05T10:13:25.699Z,15.80
2023-01-05T10:28:40.597Z,15.70
2023-01-05T10:44:17.501Z,15.90
2023-01-05T10:59:22.065Z,16.00
2023-01-05T11:14:28.197Z,16.00
2023-01-05T11:29:32.736Z,15.80
2023-01-05T11:44:37.904Z,16.00
2023-01-05T11:59:42.375Z,16.10
2023-01-05T12:14:58.682Z,16.00
2023-01-05T12:46:09.924Z,15.90
2023-01-05T13:01:21.705Z,16.10
2023-01-05T13:16:29.964Z,15.90
2023-01-05T13:31:52.904Z,15.90
2023-01-05T13:47:26.918Z,16.20
2023-01-05T14:02:38.703Z,16.40
2023-01-05T14:17:58.824Z,16.20
2023-01-05T14:33:07.101Z,15.40
2023-01-05T14:48:30.387Z,15.20
2023-01-05T15:03:51.646Z,15.30
2023-01-05T15:19:25.846Z,15.80
2023-01-05T15:34:38.249Z,15.70
2023-01-05T15:49:42.802Z,15.80
2023-01-05T16:04:47.290Z,15.30
2023-01-05T16:19:56.042Z,15.40
2023-01-05T16:35:23.324Z,14.90
2023-01-05T16:50:55.784Z,15.00
2023-01-05T17:06:01.983Z,15.10
2023-01-05T17:21:07.776Z,14.50
2023-01-05T17:36:12.517Z,14.80
2023-01-05T17:51:17.075Z,15.20
2023-01-05T18:06:21.607Z,15.00
2023-01-05T18:21:26.031Z,15.10
2023-01-05T18:36:30.446Z,15.20
2023-01-05T18:51:35.200Z,15.00
2023-01-05T19:06:42.741Z,14.70
2023-01-05T19:21:47.955Z,15.10
2023-01-05T19:36:52.480Z,15.30
2023-01-05T19:51:57.441Z,15.10
2023-01-05T20:07:03.855Z,15.00
2023-01-05T20:22:13.724Z,14.90
2023-01-05T20:37:18.506Z,15.00
2023-01-05T20:52:22.908Z,15.10
2023-01-05T21:07:27.365Z,14.90
